createdAt,value
2023-03-26T00:02:23.425Z,8.55
2023-03-26T00:05:14.494Z,8.77
2023-03-26T00:08:03.919Z,11.20
2023-03-26T00:10:51.975Z,10.63
2023-03-26T00:13:41.393Z,13.32
2023-03-26T00:16:31.598Z,12.50
2023-03-26T00:19:19.586Z,12.57
2023-03-26T00:22:07.499Z,14.30
2023-03-26T00:24:59.294Z,12.35
2023-03-26T00:27:48.116Z,11.25
2023-03-26T00:30:36.757Z,13.93
2023-03-26T00:33:25.263Z,12.00
2023-03-26T00:36:16.497Z,16.17
2023-03-26T00:39:06.139Z,15.98
2023-03-26T00:41:55.738Z,14.50
2023-03-26T00:44:43.692Z,14.52
2023-03-26T00:47:31.929Z,14.57
2023-03-26T00:50:19.924Z,12.17
2023-03-26T00:53:08.736Z,14.95
2023-03-26T00:56:00.215Z,14.15
2023-03-26T00:58:50.367Z,18.13
2023-03-26T01:01:38.495Z,18.80
2023-03-26T01:04:30.822Z,20.13
2023-03-26T01:07:21.673Z,17.92
2023-03-26T01:10:09.742Z,13.10
2023-03-26T01:12:57.738Z,20.52
2023-03-26T01:15:50.967Z,22.85
2023-03-26T01:18:41.941Z,21.63
2023-03-26T01:21:31.726Z,28.08
2023-03-26T01:24:22.125Z,15.93
2023-03-26T01:27:25.643Z,17.38
2023-03-26T01:30:22.269Z,20.33
2023-03-26T01:33:19.350Z,20.50
2023-03-26T01:36:12.909Z,14.25
2023-03-26T01:39:09.673Z,19.23
2023-03-26T01:42:04.358Z,23.08
2023-03-26T01:44:58.834Z,15.52
2023-03-26T01:47:48.127Z,18.20
2023-03-26T01:50:36.265Z,16.38
2023-03-26T01:53:24.440Z,23.05
2023-03-26T01:56:19.394Z,23.00
2023-03-26T01:59:28.879Z,21.88
2023-03-26T02:02:22.704Z,24.60
2023-03-26T02:05:16.744Z,23.98
2023-03-26T02:08:11.868Z,18.33
2023-03-26T02:11:04.392Z,25.73
2023-03-26T02:13:53.115Z,22.52
2023-03-26T02:16:47.082Z,28.50
2023-03-26T02:19:35.280Z,20.95
2023-03-26T02:22:29.986Z,22.98
2023-03-26T02:25:21.079Z,25.63
2023-03-26T02:28:09.116Z,22.25
2023-03-26T02:30:57.746Z,32.63
2023-03-26T02:33:47.691Z,17.58
2023-03-26T02:36:36.125Z,26.75
2023-03-26T02:39:24.804Z,18.90
2023-03-26T02:42:12.809Z,25.75
2023-03-26T02:45:01.178Z,28.60
2023-03-26T02:47:51.148Z,27.65
2023-03-26T02:50:40.545Z,30.10
2023-03-26T02:53:29.692Z,28.58
2023-03-26T02:56:17.899Z,30.45
2023-03-26T02:59:06.008Z,21.33
2023-03-26T03:01:54.491Z,23.17
2023-03-26T03:04:42.458Z,26.15
2023-03-26T03:07:31.793Z,23.65
2023-03-26T03:10:21.760Z,21.60
2023-03-26T03:13:09.876Z,30.23
2023-03-26T03:15:57.949Z,25.83
2023-03-26T03:18:47.521Z,21.42
2023-03-26T03:21:36.142Z,21.85
2023-03-26T03:24:27.089Z,28.25
2023-03-26T03:27:15.580Z,21.93
2023-03-26T03:30:04.381Z,24.80
2023-03-26T03:32:52.374Z,23.92
2023-03-26T03:35:42.532Z,22.98
2023-03-26T03:38:30.687Z,23.88
2023-03-26T03:41:20.062Z,24.37
2023-03-26T03:44:08.067Z,24.10
2023-03-26T03:46:56.919Z,26.08
2023-03-26T03:49:45.021Z,18.90
2023-03-26T03:52:33.266Z,17.92
2023-03-26T03:55:24.001Z,22.00
2023-03-26T03:58:14.560Z,22.48
2023-03-26T04:01:03.094Z,21.02
2023-03-26T04:03:51.278Z,20.13
2023-03-26T04:06:39.487Z,21.60
2023-03-26T04:09:27.482Z,21.47
2023-03-26T04:12:15.578Z,20.98
2023-03-26T04:15:05.850Z,16.00
2023-03-26T04:17:53.927Z,19.08
2023-03-26T04:20:46.302Z,21.65
2023-03-26T04:23:36.480Z,18.10
2023-03-26T04:26:24.786Z,23.92
2023-03-26T04:29:17.131Z,18.17
2023-03-26T04:32:07.482Z,19.65
2023-03-26T04:34:55.570Z,18.05
2023-03-26T04:37:46.040Z,17.93
2023-03-26T04:40:35.525Z,22.38
2023-03-26T04:43:23.576Z,19.60
2023-03-26T04:46:11.660Z,16.42
2023-03-26T04:49:01.771Z,19.52
2023-03-26T04:51:49.789Z,20.53
2023-03-26T04:54:37.819Z,21.17
2023-03-26T04:57:32.655Z,25.55
2023-03-26T05:00:21.471Z,21.13
2023-03-26T05:03:11.645Z,21.15
2023-03-26T05:06:02.913Z,15.90
2023-03-26T05:08:51.112Z,19.55
2023-03-26T05:11:39.130Z,18.85
2023-03-26T05:14:27.155Z,17.33
2023-03-26T05:17:18.912Z,22.13
2023-03-26T05:20:09.021Z,20.13
2023-03-26T05:22:58.472Z,19.73
2023-03-26T05:25:47.085Z,14.90
2023-03-26T05:28:35.093Z,17.88
2023-03-26T05:31:23.368Z,14.57
2023-03-26T05:34:11.469Z,18.73
2023-03-26T05:36:59.412Z,16.77
2023-03-26T05:39:48.742Z,23.67
2023-03-26T05:42:36.674Z,14.13
2023-03-26T05:45:24.707Z,13.23
2023-03-26T05:48:12.770Z,24.17
2023-03-26T05:51:00.786Z,19.83
2023-03-26T05:53:48.719Z,18.83
2023-03-26T05:59:25.957Z,18.33
2023-03-26T06:02:13.853Z,14.20
2023-03-26T06:05:02.864Z,21.55
2023-03-26T06:07:51.045Z,26.20
2023-03-26T06:10:39.470Z,16.88
2023-03-26T06:13:28.996Z,16.50
2023-03-26T06:16:26.185Z,18.77
2023-03-26T06:19:15.750Z,16.55
2023-03-26T06:22:03.772Z,15.10
2023-03-26T06:24:52.863Z,20.67
2023-03-26T06:27:40.844Z,18.10
2023-03-26T06:30:30.321Z,16.13
2023-03-26T06:33:18.462Z,17.20
2023-03-26T06:36:07.398Z,16.55
2023-03-26T06:38:55.531Z,16.38
2023-03-26T06:41:43.459Z,17.83
2023-03-26T06:44:31.608Z,22.03
2023-03-26T06:47:21.271Z,20.23
2023-03-26T06:50:11.555Z,24.25
2023-03-26T06:52:59.982Z,21.92
2023-03-26T06:55:47.956Z,23.00
2023-03-26T06:58:36.032Z,22.70
2023-03-26T07:01:24.174Z,22.63
2023-03-26T07:04:13.572Z,18.50
2023-03-26T07:07:01.710Z,18.27
2023-03-26T07:09:49.702Z,21.15
2023-03-26T07:12:37.757Z,21.20
2023-03-26T07:15:25.838Z,19.35
2023-03-26T07:18:13.755Z,23.23
2023-03-26T07:21:03.812Z,20.25
2023-03-26T07:23:54.011Z,20.95
2023-03-26T07:26:52.872Z,19.97
2023-03-26T07:29:46.651Z,22.45
2023-03-26T07:32:43.171Z,27.33
2023-03-26T07:35:37.947Z,16.63
2023-03-26T07:38:40.834Z,24.92
2023-03-26T07:41:36.406Z,22.80
2023-03-26T07:44:49.319Z,20.50
2023-03-26T07:47:38.898Z,18.58
2023-03-26T07:50:27.615Z,21.60
2023-03-26T07:53:16.450Z,19.15
2023-03-26T07:56:11.711Z,21.10
2023-03-26T07:59:10.753Z,22.58
2023-03-26T08:02:16.250Z,19.65
2023-03-26T08:05:18.938Z,27.75
2023-03-26T08:08:17.467Z,22.70
2023-03-26T08:11:19.302Z,18.87
2023-03-26T08:14:21.790Z,19.13
2023-03-26T08:17:14.327Z,21.08
2023-03-26T08:20:14.262Z,19.08
2023-03-26T08:23:09.440Z,18.20
2023-03-26T08:26:03.219Z,22.40
2023-03-26T08:29:03.878Z,17.23
2023-03-26T08:31:52.166Z,19.50
2023-03-26T08:34:40.843Z,14.95
2023-03-26T08:37:30.998Z,21.48
2023-03-26T08:40:31.981Z,18.40
2023-03-26T08:43:46.782Z,17.52
2023-03-26T08:47:11.997Z,16.75
2023-03-26T08:50:41.447Z,17.38
2023-03-26T08:53:53.649Z,15.68
2023-03-26T08:56:52.620Z,15.77
2023-03-26T09:00:12.345Z,17.00
2023-03-26T09:03:21.398Z,15.13
2023-03-26T09:06:24.227Z,17.05
2023-03-26T09:09:53.279Z,17.40
2023-03-26T09:13:25.890Z,19.13
2023-03-26T09:16:39.586Z,17.88
2023-03-26T09:20:04.947Z,15.65
2023-03-26T09:23:27.183Z,19.63
2023-03-26T09:26:25.664Z,21.25
2023-03-26T09:29:47.651Z,17.60
2023-03-26T09:33:14.350Z,15.15
2023-03-26T09:36:21.596Z,16.88
2023-03-26T09:39:17.334Z,15.70
2023-03-26T09:42:11.802Z,18.98
2023-03-26T09:45:44.298Z,18.40
2023-03-26T09:48:57.295Z,16.33
2023-03-26T09:52:08.459Z,26.60
2023-03-26T09:55:22.406Z,18.42
2023-03-26T09:58:30.341Z,21.50
2023-03-26T10:01:29.214Z,18.57
2023-03-26T10:04:42.629Z,22.20
2023-03-26T10:07:55.883Z,19.45
2023-03-26T10:10:53.231Z,17.25
2023-03-26T10:13:53.599Z,12.80
2023-03-26T10:16:57.117Z,12.47
2023-03-26T10:19:55.747Z,11.60
2023-03-26T10:22:56.722Z,10.82
2023-03-26T10:25:59.248Z,12.82
2023-03-26T10:29:17.759Z,14.13
2023-03-26T10:32:23.282Z,7.43
2023-03-26T10:35:26.176Z,8.73
2023-03-26T10:38:19.725Z,8.07
2023-03-26T10:41:14.815Z,10.73
2023-03-26T10:44:26.423Z,9.45
2023-03-26T10:47:42.890Z,7.03
2023-03-26T10:50:46.262Z,10.00
2023-03-26T10:53:42.757Z,10.40
2023-03-26T10:56:36.506Z,12.27
2023-03-26T10:59:27.346Z,10.18
2023-03-26T11:02:30.810Z,9.67
2023-03-26T11:05:31.707Z,11.38
2023-03-26T11:08:31.034Z,11.63
2023-03-26T11:11:30.352Z,11.13
2023-03-26T11:14:34.163Z,9.05
2023-03-26T11:17:39.384Z,11.37
2023-03-26T11:20:38.414Z,8.60
2023-03-26T11:23:36.509Z,13.50
2023-03-26T11:26:32.311Z,9.85
2023-03-26T11:29:36.898Z,8.63
2023-03-26T11:32:28.101Z,7.93
2023-03-26T11:35:42.459Z,15.98
2023-03-26T11:38:37.748Z,8.18
2023-03-26T11:41:30.878Z,9.63
2023-03-26T11:44:27.097Z,12.63
2023-03-26T11:47:19.875Z,8.03
2023-03-26T11:50:15.647Z,10.63
2023-03-26T11:53:13.420Z,12.80
2023-03-26T11:56:05.663Z,9.30
2023-03-26T11:59:01.258Z,8.23
2023-03-26T12:01:51.629Z,9.13
2023-03-26T12:04:41.530Z,7.20
2023-03-26T12:07:32.460Z,9.18
2023-03-26T12:10:30.860Z,7.82
2023-03-26T12:13:34.660Z,9.90
2023-03-26T12:16:24.232Z,7.60
2023-03-26T12:19:20.953Z,5.97
2023-03-26T12:22:29.960Z,9.10
2023-03-26T12:25:20.656Z,9.80
2023-03-26T12:28:19.405Z,8.27
2023-03-26T12:31:09.407Z,7.63
2023-03-26T12:34:16.238Z,9.93
2023-03-26T12:37:06.855Z,7.65
2023-03-26T12:40:14.966Z,8.68
2023-03-26T12:44:50.229Z,5.38
2023-03-26T12:47:55.306Z,7.90
2023-03-26T12:49:36.472Z,12.00
2023-03-26T12:52:41.665Z,13.07
2023-03-26T12:55:38.993Z,7.35
2023-03-26T12:58:55.264Z,4.68
2023-03-26T13:01:55.700Z,7.67
2023-03-26T13:05:06.084Z,7.22
2023-03-26T13:08:07.933Z,7.15
2023-03-26T13:11:04.074Z,6.43
2023-03-26T13:14:05.656Z,5.22
2023-03-26T13:16:56.964Z,11.33
2023-03-26T13:19:55.761Z,6.22
2023-03-26T13:22:54.133Z,7.20
2023-03-26T13:25:48.328Z,5.70
2023-03-26T13:28:46.609Z,5.38
2023-03-26T13:31:42.586Z,6.13
2023-03-26T13:34:38.013Z,5.10
2023-03-26T13:37:35.172Z,14.15
2023-03-26T13:40:29.930Z,5.72
2023-03-26T13:43:29.996Z,4.97
2023-03-26T13:46:30.124Z,7.30
2023-03-26T13:49:24.199Z,4.10
2023-03-26T13:52:15.213Z,4.35
2023-03-26T13:55:19.678Z,5.13
2023-03-26T13:58:16.021Z,6.43
2023-03-26T14:01:09.319Z,6.07
2023-03-26T14:04:03.789Z,7.63
2023-03-26T14:06:58.348Z,9.43
2023-03-26T14:09:52.678Z,5.03
2023-03-26T14:12:53.037Z,6.13
2023-03-26T14:15:46.902Z,3.80
2023-03-26T14:18:41.906Z,4.18
2023-03-26T14:21:45.482Z,4.05
2023-03-26T14:24:48.185Z,7.18
2023-03-26T14:27:47.358Z,6.13
2023-03-26T14:30:56.333Z,5.83
2023-03-26T14:33:57.369Z,4.97
2023-03-26T14:37:05.896Z,4.80
2023-03-26T14:40:25.213Z,6.65
2023-03-26T14:43:37.916Z,4.80
2023-03-26T14:46:41.444Z,7.97
2023-03-26T14:49:55.868Z,4.15
2023-03-26T14:52:48.677Z,8.57
2023-03-26T14:56:09.887Z,5.80
2023-03-26T14:59:43.042Z,4.25
2023-03-26T15:03:16.405Z,6.57
2023-03-26T15:06:47.126Z,3.92
2023-03-26T15:10:10.054Z,7.00
2023-03-26T15:13:18.267Z,6.55
2023-03-26T15:16:41.386Z,8.40
2023-03-26T15:20:04.151Z,8.40
2023-03-26T15:23:38.523Z,4.00
2023-03-26T15:26:56.848Z,7.10
2023-03-26T15:30:24.984Z,4.40
2023-03-26T15:33:47.761Z,5.45
2023-03-26T15:37:13.160Z,5.37
2023-03-26T15:40:26.931Z,5.38
2023-03-26T15:43:17.775Z,6.53
2023-03-26T15:46:31.933Z,9.32
2023-03-26T15:49:27.981Z,4.30
2023-03-26T15:52:27.218Z,3.77
2023-03-26T15:55:31.050Z,4.93
2023-03-26T15:58:24.039Z,4.00
2023-03-26T16:01:23.075Z,2.83
2023-03-26T16:04:24.950Z,7.55
2023-03-26T16:07:28.963Z,6.03
2023-03-26T16:10:38.348Z,7.53
2023-03-26T16:13:39.657Z,3.47
2023-03-26T16:16:51.584Z,6.97
2023-03-26T16:20:00.743Z,6.43
2023-03-26T16:22:59.708Z,5.63
2023-03-26T16:26:00.287Z,6.88
2023-03-26T16:29:15.862Z,6.47
2023-03-26T16:32:17.051Z,4.85
2023-03-26T16:35:34.404Z,3.33
2023-03-26T16:38:28.197Z,8.27
2023-03-26T16:41:19.482Z,4.63
2023-03-26T16:44:13.778Z,5.03
2023-03-26T16:47:16.942Z,4.97
2023-03-26T16:50:19.523Z,4.70
2023-03-26T16:53:30.320Z,5.13
2023-03-26T16:56:32.042Z,4.47
2023-03-26T17:00:08.636Z,6.30
2023-03-26T17:03:08.036Z,5.07
2023-03-26T17:06:06.039Z,7.55
2023-03-26T17:09:02.575Z,3.43
2023-03-26T17:12:01.666Z,4.32
2023-03-26T17:15:05.898Z,4.90
2023-03-26T17:18:21.781Z,3.47
2023-03-26T17:21:16.075Z,3.45
2023-03-26T17:24:16.418Z,6.20
2023-03-26T17:27:23.715Z,2.70
2023-03-26T17:30:35.505Z,5.78
2023-03-26T17:33:30.902Z,3.58
2023-03-26T17:36:40.848Z,5.13
2023-03-26T17:40:12.173Z,4.20
2023-03-26T17:43:09.296Z,6.57
2023-03-26T17:46:02.880Z,5.72
2023-03-26T17:49:00.803Z,5.15
2023-03-26T17:51:54.463Z,4.90
2023-03-26T17:54:46.963Z,7.60
2023-03-26T17:57:42.104Z,5.38
2023-03-26T18:00:36.554Z,5.88
2023-03-26T18:03:31.112Z,3.65
2023-03-26T18:06:38.549Z,5.72
2023-03-26T18:09:41.806Z,4.67
2023-03-26T18:13:00.321Z,6.70
2023-03-26T18:16:05.344Z,4.47
2023-03-26T18:18:56.976Z,3.47
2023-03-26T18:21:49.060Z,3.25
2023-03-26T18:24:39.470Z,4.90
2023-03-26T18:27:34.439Z,3.50
2023-03-26T18:30:25.949Z,5.10
2023-03-26T18:33:16.629Z,5.22
2023-03-26T18:36:04.887Z,4.65
2023-03-26T18:38:58.976Z,4.23
2023-03-26T18:41:48.002Z,7.45
2023-03-26T18:44:37.565Z,4.13
2023-03-26T18:47:26.041Z,2.50
2023-03-26T18:50:22.391Z,4.65
2023-03-26T18:53:17.812Z,3.40
2023-03-26T18:56:20.247Z,4.85
2023-03-26T18:59:21.654Z,3.58
2023-03-26T19:02:13.915Z,5.28
2023-03-26T19:05:03.474Z,7.85
2023-03-26T19:07:53.235Z,6.70
2023-03-26T19:10:41.310Z,3.72
2023-03-26T19:13:29.786Z,3.47
2023-03-26T19:16:23.297Z,5.85
2023-03-26T19:19:20.050Z,3.00
2023-03-26T19:22:11.988Z,5.60
2023-03-26T19:25:04.591Z,10.05
2023-03-26T19:27:53.198Z,5.15
2023-03-26T19:30:43.221Z,4.03
2023-03-26T19:33:36.430Z,5.55
2023-03-26T19:36:28.275Z,4.47
2023-03-26T19:39:21.714Z,5.32
2023-03-26T19:42:26.383Z,4.38
2023-03-26T19:45:19.271Z,3.10
2023-03-26T19:48:15.253Z,3.45
2023-03-26T19:51:06.687Z,5.33
2023-03-26T19:53:56.931Z,5.03
2023-03-26T19:56:45.224Z,7.70
2023-03-26T19:59:34.592Z,3.67
2023-03-26T20:02:22.976Z,4.47
2023-03-26T20:05:19.184Z,5.60
2023-03-26T20:08:14.440Z,4.43
2023-03-26T20:11:02.551Z,4.03
2023-03-26T20:13:52.262Z,4.25
2023-03-26T20:16:43.839Z,7.57
2023-03-26T20:19:33.661Z,3.00
2023-03-26T20:22:21.698Z,7.45
2023-03-26T20:28:12.514Z,6.60
2023-03-26T20:31:01.039Z,5.10
2023-03-26T20:33:51.950Z,3.40
2023-03-26T20:36:40.076Z,6.05
2023-03-26T20:39:28.233Z,5.55
2023-03-26T20:42:17.081Z,2.28
2023-03-26T20:45:14.979Z,3.28
2023-03-26T20:48:03.052Z,4.03
2023-03-26T20:50:52.901Z,3.67
2023-03-26T20:53:41.644Z,5.05
2023-03-26T20:56:29.681Z,6.13
2023-03-26T20:59:22.329Z,4.13
2023-03-26T21:02:11.641Z,5.53
2023-03-26T21:04:59.706Z,5.35
2023-03-26T21:07:49.812Z,5.03
2023-03-26T21:10:38.446Z,4.25
2023-03-26T21:13:36.647Z,7.72
2023-03-26T21:16:25.271Z,6.07
2023-03-26T21:19:13.854Z,6.70
2023-03-26T21:22:13.663Z,4.75
2023-03-26T21:25:15.262Z,6.95
2023-03-26T21:28:17.163Z,6.28
2023-03-26T21:31:06.558Z,3.67
2023-03-26T21:33:55.189Z,4.55
2023-03-26T21:36:43.773Z,10.77
2023-03-26T21:39:32.500Z,2.67
2023-03-26T21:42:22.461Z,3.03
2023-03-26T21:45:12.091Z,3.07
2023-03-26T21:48:02.376Z,2.88
2023-03-26T21:50:51.067Z,1.92
2023-03-26T21:53:39.697Z,2.80
2023-03-26T21:56:39.985Z,4.45
2023-03-26T21:59:37.413Z,1.97
2023-03-26T22:02:36.933Z,2.45
2023-03-26T22:05:31.100Z,2.60
2023-03-26T22:08:28.291Z,3.72
2023-03-26T22:11:16.403Z,4.68
2023-03-26T22:14:04.948Z,2.67
2023-03-26T22:16:54.606Z,2.95
2023-03-26T22:19:42.695Z,3.05
2023-03-26T22:22:30.810Z,4.03
2023-03-26T22:25:19.909Z,2.08
2023-03-26T22:28:08.217Z,3.07
2023-03-26T22:30:57.096Z,4.00
2023-03-26T22:33:47.211Z,4.63
2023-03-26T22:36:36.753Z,2.85
2023-03-26T22:39:27.351Z,4.75
2023-03-26T22:42:15.800Z,4.60
2023-03-26T22:45:04.419Z,8.32
2023-03-26T22:47:52.734Z,6.15
2023-03-26T22:51:00.998Z,2.83
2023-03-26T22:53:49.361Z,4.72
2023-03-26T22:56:37.719Z,3.60
2023-03-26T22:59:26.394Z,5.82
2023-03-26T23:02:16.503Z,4.28
2023-03-26T23:05:04.726Z,3.17
2023-03-26T23:07:54.114Z,4.03
2023-03-26T23:10:43.935Z,5.63
2023-03-26T23:13:32.312Z,2.50
2023-03-26T23:16:21.644Z,2.75
2023-03-26T23:19:09.732Z,3.72
2023-03-26T23:21:58.141Z,2.25
2023-03-26T23:24:47.628Z,2.10
2023-03-26T23:27:35.727Z,3.10
2023-03-26T23:30:24.219Z,4.32
2023-03-26T23:33:12.645Z,4.30
2023-03-26T23:36:00.780Z,7.80
2023-03-26T23:38:49.832Z,4.13
2023-03-26T23:41:39.185Z,9.00
2023-03-26T23:44:29.481Z,2.78
2023-03-26T23:47:17.489Z,6.88
2023-03-26T23:50:06.668Z,4.63
2023-03-26T23:52:54.711Z,3.60
2023-03-26T23:55:45.777Z,2.25
2023-03-26T23:58:35.870Z,4.13
